Etusivu
METAR-TAF:

METAR-TAF

Lentoasemat :

Del Rio International Airport

Del Rio, Texas, Yhdysvallat

Leveyspiiri: 29-22-29N, Pituuspiiri: 100-55-25W, korkeus merenpinnasta: 304 m

Tämänhetkinen sää

Tämä raportti tehtiin 40 minuuttia sitten, kello 16.53 UTC
Tuuli 8 kn idästä/kaakosta
Lämpötila 33°C
Kosteus 59%
Ilmanpaine 1009 hPa
Näkyvyys: 16.1 km
selkeää

METAR: KDRT 201653Z AUTO 11008KT 10SM CLR 33/24 A2981 RMK AO2 SLP075 T03330244

Aika: 12:33 (17:33 UTC)

Sääennuste

Tämä raportti tehtiin 6 tuntia ja 13 minuuttia sitten, kello 11.20 UTC
Ennuste voimassa 20. päivästä klo 12 UTC - 21. päivään klo 12 UTC
Tuuli 8 kn idästä/kaakosta
Näkyvyys: 10 km
selkeää
From 20. päivästä klo 1700 UTC
Tuuli 11 kn kaakosta
Näkyvyys: 10 km
Hajonneita pilviä 25000 ft:n korkeudessa

TAF: KDRT 201120Z 2012/2112 11008KT P6SM SKC FM201700 14011KT P6SM BKN250

Säähavainnot ja -ennusteet yli 4000 lentoasemalta (METAR- ja TAF-raportit).

Käytössä olevat sääasemat on merkitty karttaan keltaisilla ja punaisilla pisteillä.

Aseta hiiri pisteen päälle nähdäksesi sääaseman nimen.

Klikkaa sitten nähdäksesi säähavainnot ja -ennusteet.

Kartan vaihtaminen: klikkaa mustalla rastilla varustettuja vihreitä pisteitä, niin voit zoomata sisään; viivalla varustettua vihreää pistettä, niin voit zoomata ulos tai vihreitä nuolia, niin pääset viereisille kartoille.


METAR-TAF: